ADDS METAR Data INFO
IDs: Format: Raw Decoded Include TAF

Data at: 1845 UTC 17 Oct 2017

KSJS 171835Z AUTO 00000KT 10SM CLR 17/03 A3034 RMK AO2 T01660031
KSJS 171815Z AUTO 00000KT 10SM CLR 16/04 A3035 RMK AO2 T01640035
KSJS 171755Z AUTO 12004KT 10SM CLR 16/04 A3035 RMK AO2 T01620036 10164 20031
KSJS 171735Z AUTO 14004KT 10SM CLR 16/04 A3036 RMK AO2 T01610038
KSJS 171715Z AUTO 00000KT 10SM CLR 16/04 A3037 RMK AO2 T01570039
KSJS 171655Z AUTO 16004KT 10SM CLR 16/04 A3038 RMK AO2 T01550044
KSJS 171635Z AUTO 12005KT 10SM CLR 15/05 A3039 RMK AO2 T01540046
KSJS 171615Z AUTO 08004KT 10SM CLR 15/05 A3040 RMK AO2 T01510054
KSJS 171555Z AUTO 21003KT 10SM CLR 13/06 A3040 RMK AO2 T01340056
KSJS 171535Z AUTO 00000KT 10SM CLR 13/06 A3040 RMK AO2 T01310063
KSJS 171515Z AUTO 00000KT 10SM CLR 11/08 A3041 RMK AO2 T01140075
KSJS 171455Z AUTO 00000KT 10SM CLR 10/08 A3041 RMK AO2 T01010075
KSJS 171435Z AUTO 20003KT 10SM CLR 09/08 A3041 RMK AO2 T00940077
KSJS 171415Z AUTO 26003KT 7SM BKN002 07/07 A3041 RMK AO2 T00740074
KSJS 171355Z AUTO 25003KT 1/2SM FG OVC002 06/06 A3041 RMK AO2 T00640064
KSJS 171335Z AUTO 00000KT 5SM BR CLR 06/06 A3040 RMK AO2 T00620062
KSJS 171315Z AUTO 00000KT 10SM CLR 07/07 A3040 RMK AO2 T00660066
KSJS 171255Z AUTO 00000KT 10SM CLR 05/05 A3039 RMK AO2 T00500050
KSJS 171235Z AUTO 00000KT 7SM SCT002 04/04 A3039 RMK AO2 T00400040
KSJS 171215Z AUTO 00000KT 5SM BR SCT002 04/04 A3039 RMK AO2 T00360036
KSJS 171155Z AUTO 00000KT 1SM BR BKN002 03/03 A3038 RMK AO2 T00300030 10059 20029
KSJS 171135Z AUTO 00000KT 10SM CLR 03/03 A3037 RMK AO2 T00340034
KSJS 171115Z AUTO 00000KT 10SM CLR 04/04 A3037 RMK AO2 T00370037
KSJS 171055Z AUTO 00000KT 10SM CLR 04/04 A3036 RMK AO2 T00370037
KSJS 171035Z AUTO 00000KT 10SM CLR 04/04 A3036 RMK AO2 T00400040
KSJS 171015Z AUTO 00000KT 7SM CLR 04/04 A3036 RMK AO2 T00400040
KSJS 170955Z AUTO 00000KT 10SM CLR 04/04 A3035 RMK AO2 T00430043
KSJS 170935Z AUTO 00000KT 10SM CLR 05/05 A3034 RMK AO2 T00450045
KSJS 170915Z AUTO 00000KT 1 1/2SM BR VV007 04/04 A3034 RMK AO2 T00430043
KSJS 170855Z AUTO 00000KT 10SM CLR 05/05 A3034 RMK AO2 T00450045
KSJS 170835Z AUTO 00000KT 10SM CLR 05/05 A3033 RMK AO2 T00490049
KSJS 170815Z AUTO 00000KT 10SM CLR 05/05 A3032 RMK AO2 T00520052
KSJS 170755Z AUTO 00000KT 10SM CLR 05/05 A3032 RMK AO2 T00530053
KSJS 170735Z AUTO 00000KT 10SM CLR 05/05 A3033 RMK AO2 T00530053
KSJS 170715Z AUTO 00000KT 10SM CLR 06/06 A3033 RMK AO2 T00560056
KSJS 170655Z AUTO 00000KT 10SM CLR 06/06 A3033 RMK AO2 T00560056
KSJS 170635Z AUTO 26003KT 10SM CLR 06/06 A3032 RMK AO2 T00580057
KSJS 170615Z AUTO 00000KT 10SM CLR 06/06 A3032 RMK AO2 T00550055
KSJS 170555Z AUTO 00000KT 10SM CLR 06/06 A3032 RMK AO2 T00570056 10109 20057
KSJS 170535Z AUTO 00000KT 10SM CLR 06/06 A3032 RMK AO2 T00620057
KSJS 170515Z AUTO 00000KT 10SM CLR 07/06 A3032 RMK AO2 T00670055
KSJS 170455Z AUTO 00000KT 10SM CLR 07/06 A3032 RMK AO2 T00710058 401680063
KSJS 170435Z AUTO 00000KT 10SM CLR 06/06 A3032 RMK AO2 T00630058
KSJS 170415Z AUTO 00000KT 10SM CLR 07/06 A3032 RMK AO2 T00690059
KSJS 170355Z AUTO 00000KT 10SM CLR 07/06 A3032 RMK AO2 T00720057
KSJS 170335Z AUTO 00000KT 10SM CLR 07/06 A3033 RMK AO2 T00670055
KSJS 170315Z AUTO 00000KT 10SM CLR 07/06 A3033 RMK AO2 T00730056
KSJS 170255Z AUTO 00000KT 10SM CLR 08/05 A3032 RMK AO2 T00790053
KSJS 170235Z AUTO 00000KT 10SM CLR 07/05 A3032 RMK AO2 T00720049
KSJS 170210Z AUTO 00000KT 10SM CLR 08/05 A3032 RMK AO2 T00780052
KSJS 170155Z AUTO 00000KT 10SM CLR 08/06 A3031 RMK AO2 T00830055
KSJS 170135Z AUTO 00000KT 10SM CLR 09/05 A3031 RMK AO2 T00870048
KSJS 170115Z AUTO 00000KT 10SM CLR 09/05 A3031 RMK AO2 T00880046
KSJS 170055Z AUTO 00000KT 10SM CLR 10/04 A3030 RMK AO2 T01000042
KSJS 170035Z AUTO 00000KT 10SM CLR 10/04 A3030 RMK AO2 T01020042
KSJS 170015Z AUTO 00000KT 10SM CLR 11/04 A3029 RMK AO2 T01070040
KSJS 162355Z AUTO 00000KT 10SM CLR 11/05 A3029 RMK AO2 T01060046 10168 20106
KSJS 162335Z AUTO 00000KT 10SM CLR 12/04 A3028 RMK AO2 T01160036
KSJS 162315Z AUTO 00000KT 10SM CLR 12/04 A3028 RMK AO2 T01170040
KSJS 162255Z AUTO 00000KT 10SM CLR 12/04 A3028 RMK AO2 T01190040
KSJS 162235Z AUTO 35003KT 10SM CLR 13/04 A3028 RMK AO2 T01270040
KSJS 162215Z AUTO 36003KT 10SM SCT060 13/04 A3028 RMK AO2 T01290039
KSJS 162155Z AUTO 01005KT 10SM CLR 14/04 A3027 RMK AO2 T01390043
KSJS 162135Z AUTO 02005KT 10SM CLR 14/04 A3026 RMK AO2 T01430039
KSJS 162115Z AUTO 01004KT 10SM SCT050 14/04 A3026 RMK AO2 T01420040
KSJS 162055Z AUTO 02006KT 10SM BKN050 16/04 A3026 RMK AO2 T01590042
KSJS 162035Z AUTO 33003KT 10SM CLR 15/04 A3026 RMK AO2 T01520038
KSJS 162015Z AUTO 36005KT 10SM BKN050 15/04 A3026 RMK AO2 T01510037
KSJS 161955Z AUTO 02007KT 300V050 10SM OVC050 16/04 A3026 RMK AO2 T01570043
KSJS 161935Z AUTO 36004KT 10SM BKN050 16/04 A3026 RMK AO2 T01610040
KSJS 161915Z AUTO 02005KT 10SM SCT048 SCT055 14/04 A3026 RMK AO2 T01430043
KSJS 161855Z AUTO 03005KT 350V060 10SM BKN048 16/05 A3027 RMK AO2 T01630052
KSJS 161835Z AUTO 35004KT 10SM SCT048 16/04 A3028 RMK AO2 T01570044
KSJS 161815Z AUTO 01006KT 10SM SCT044 SCT050 15/05 A3028 RMK AO2 T01470052
KSJS 161755Z AUTO 00000KT 10SM SCT043 SCT050 15/04 A3028 RMK AO2 T01510043 10153 20098
KSJS 161735Z AUTO 33006KT 10SM SCT041 SCT048 14/05 A3029 RMK AO2 T01410047
KSJS 161715Z AUTO 02008G15KT 330V040 10SM SCT039 SCT045 14/05 A3030 RMK AO2 T01360046
KSJS 161655Z AUTO 02008KT 10SM SCT036 BKN043 14/05 A3029 RMK AO2 T01350050
KSJS 161635Z AUTO 34010G14KT 10SM BKN036 BKN043 14/06 A3030 RMK AO2 T01390058
KSJS 161615Z AUTO 01004KT 10SM SCT034 OVC042 12/06 A3030 RMK AO2 T01230057
KSJS 161555Z AUTO 33009KT 10SM OVC038 14/06 A3029 RMK AO2 T01370062
KSJS 161535Z AUTO 36007G14KT 340V040 10SM SCT030 BKN038 12/05 A3029 RMK AO2 T01240054
KSJS 161515Z AUTO 34005KT 10SM BKN030 BKN036 OVC042 13/06 A3029 RMK AO2 T01250058
KSJS 161455Z AUTO 02006KT 10SM BKN028 BKN035 12/06 A3029 RMK AO2 T01240060
KSJS 161435Z AUTO 01006KT 10SM BKN024 12/06 A3028 RMK AO2 T01220058
KSJS 161415Z AUTO 01006KT 340V050 10SM SCT019 BKN024 12/07 A3028 RMK AO2 T01220070
KSJS 161355Z AUTO 33005KT 310V010 10SM SCT016 SCT044 11/07 A3027 RMK AO2 T01070070
KSJS 161335Z AUTO 34005KT 10SM SCT014 SCT022 BKN044 11/08 A3026 RMK AO2 T01080079
KSJS 161315Z AUTO 34005KT 10SM BKN012 BKN022 BKN044 10/08 A3025 RMK AO2 T01000082
KSJS 161255Z AUTO 34003KT 10SM -RA BKN014 BKN020 OVC025 10/09 A3024 RMK AO2 T01010086
KSJS 161235Z AUTO 34003KT 10SM SCT019 SCT024 OVC044 10/08 A3024 RMK AO2 T01010084
KSJS 161215Z AUTO 35003KT 10SM SCT017 OVC044 10/08 A3023 RMK AO2 T01010082
KSJS 161155Z AUTO 32004KT 10SM SCT017 SCT023 OVC046 10/08 A3023 RMK AO2 T01010083 10111 20101
KSJS 161135Z AUTO 33003KT 10SM BKN017 BKN023 OVC044 10/08 A3022 RMK AO2 T01020082
KSJS 161115Z AUTO 32004KT 10SM SCT017 BKN027 OVC044 10/08 A3022 RMK AO2 T01020083
KSJS 161055Z AUTO 32004KT 10SM SCT025 SCT035 OVC044 10/08 A3021 RMK AO2 T01020081
KSJS 161035Z AUTO 31004KT 10SM OVC044 10/08 A3021 RMK AO2 T01030081
KSJS 161015Z AUTO 32003KT 10SM OVC044 10/08 A3020 RMK AO2 T01030080
KSJS 160955Z AUTO 31003KT 10SM OVC044 11/08 A3020 RMK AO2 T01050080
KSJS 160935Z AUTO 30003KT 10SM OVC042 11/08 A3019 RMK AO2 T01050080
KSJS 160915Z AUTO 00000KT 10SM OVC042 11/08 A3019 RMK AO2 T01050079
KSJS 160855Z AUTO 31003KT 10SM SCT035 OVC040 11/08 A3019 RMK AO2 T01070078
KSJS 160835Z AUTO 30003KT 10SM OVC040 11/08 A3019 RMK AO2 T01060079
KSJS 160815Z AUTO 00000KT 10SM OVC040 11/08 A3019 RMK AO2 T01070077
KSJS 160755Z AUTO 00000KT 10SM OVC038 11/08 A3019 RMK AO2 T01070080
KSJS 160735Z AUTO 00000KT 10SM OVC038 11/08 A3019 RMK AO2 T01080078
KSJS 160710Z AUTO 00000KT 10SM OVC036 11/08 A3018 RMK AO2 T01090080
KSJS 160655Z AUTO 00000KT 10SM OVC036 11/08 A3018 RMK AO2 T01100080